Time;durP1;ratioP1;P1;durP2;ratioP2;P2;SDS_P1;SDS_P2;PMS_P1;PMS_P2;Temp;Humidity;BMP_temperature;BMP_pressure;BME280_temperature;BME280_humidity;BME280_pressure;Samples;Min_cycle;Max_cycle;Signal;HPM_P1;HPM_P2
2022/06/02 00:02:17;;;;;;;18.60;7.00;;;;;;;;;;5076625;28;20103;-73
2022/06/02 00:05:08;;;;;;;20.90;8.88;;;;;;;;;;5074236;28;20047;-73
2022/06/02 00:07:43;;;;;;;15.20;5.50;;;;;;;;;;5059436;28;20028;-73
2022/06/02 00:10:25;;;;;;;12.73;4.43;;;;;;;;;;5005681;28;20063;-73
2022/06/02 00:12:57;;;;;;;13.48;4.80;;;;;;;;;;5023263;28;20510;-73
2022/06/02 00:15:36;;;;;;;14.48;5.00;;;;;;;;;;5020003;28;20131;-72
2022/06/02 00:18:21;;;;;;;17.10;5.57;;;;;;;;;;5016778;28;20569;-72
2022/06/02 00:20:55;;;;;;;15.32;4.28;;;;;;;;;;5019083;28;20091;-72
2022/06/02 00:23:29;;;;;;;15.15;4.28;;;;;;;;;;5019925;28;20047;-72
2022/06/02 00:26:14;;;;;;;17.85;4.65;;;;;;;;;;5019516;28;20459;-73
2022/06/02 00:29:09;;;;;;;14.15;3.80;;;;;;;;;;5021668;28;20670;-72
2022/06/02 00:31:54;;;;;;;16.40;3.85;;;;;;;;;;5018129;28;20059;-74
2022/06/02 00:34:47;;;;;;;17.15;3.88;;;;;;;;;;5001151;28;20465;-74
2022/06/02 00:37:26;;;;;;;10.65;3.60;;;;;;;;;;4992918;28;20127;-74
2022/06/02 00:39:54;;;;;;;14.48;3.67;;;;;;;;;;5020042;28;20462;-72
2022/06/02 00:42:40;;;;;;;13.80;3.70;;;;;;;;;;5020571;28;20025;-74
2022/06/02 00:45:14;;;;;;;12.07;3.37;;;;;;;;;;5015900;28;20047;-72
2022/06/02 00:47:59;;;;;;;11.93;3.20;;;;;;;;;;5051916;28;20036;-74
2022/06/02 00:50:45;;;;;;;11.88;3.80;;;;;;;;;;5071064;28;20062;-74
2022/06/02 00:57:30;;;;;;;12.23;3.65;;;;;;;;;;5070759;28;20273;-74
2022/06/02 00:59:40;;;;;;;13.13;4.38;;;;;;;;;;4981538;28;20548;-73
2022/06/02 01:02:07;;;;;;;15.02;4.55;;;;;;;;;;4997455;28;20072;-73
2022/06/02 01:04:36;;;;;;;13.15;4.47;;;;;;;;;;5004021;28;20552;-72
2022/06/02 01:07:14;;;;;;;13.10;4.55;;;;;;;;;;4976830;28;20637;-72
2022/06/02 01:09:51;;;;;;;11.27;3.85;;;;;;;;;;5003248;28;20611;-72
2022/06/02 01:12:35;;;;;;;11.40;3.55;;;;;;;;;;4999821;28;20052;-72
2022/06/02 01:15:22;;;;;;;14.05;3.90;;;;;;;;;;5005730;28;20037;-72
2022/06/02 01:18:06;;;;;;;11.50;3.50;;;;;;;;;;5006325;28;20124;-72
2022/06/02 01:20:55;;;;;;;13.45;4.03;;;;;;;;;;5001814;28;20523;-72
2022/06/02 01:23:42;;;;;;;11.65;3.22;;;;;;;;;;4964031;28;20135;-72
2022/06/02 01:26:09;;;;;;;;;;;;;;;;;;5000591;28;20488;-72
2022/06/02 01:28:35;;;;;;;;;;;;;;;;;;4987668;28;20292;-72
2022/06/02 01:31:06;;;;;;;11.55;4.10;;;;;;;;;;5011499;28;19912;-72
2022/06/02 01:34:00;;;;;;;11.30;3.25;;;;;;;;;;5065884;28;20043;-72
2022/06/02 01:36:45;;;;;;;10.50;3.20;;;;;;;;;;5038640;28;20131;-72
2022/06/02 01:39:38;;;;;;;13.23;3.67;;;;;;;;;;5047216;28;20040;-72
2022/06/02 01:42:23;;;;;;;13.52;3.88;;;;;;;;;;5056936;28;20052;-72
2022/06/02 01:45:18;;;;;;;12.02;3.72;;;;;;;;;;5056064;28;20494;-72
2022/06/02 01:47:51;;;;;;;15.75;3.92;;;;;;;;;;5035620;28;20473;-72
2022/06/02 01:50:26;;;;;;;13.82;4.25;;;;;;;;;;5051174;28;20197;-72
2022/06/02 01:53:12;;;;;;;15.85;3.95;;;;;;;;;;5055202;28;20910;-72
2022/06/02 01:56:19;;;;;;;14.55;4.35;;;;;;;;;;5056235;28;20136;-72
2022/06/02 01:59:12;;;;;;;14.68;4.55;;;;;;;;;;5045039;28;20044;-72
2022/06/02 02:02:00;;;;;;;14.73;4.50;;;;;;;;;;5022376;28;20043;-72
2022/06/02 02:04:39;;;;;;;17.13;4.97;;;;;;;;;;5044210;28;20048;-72
2022/06/02 02:07:25;;;;;;;12.68;4.35;;;;;;;;;;5027025;28;20631;-72
2022/06/02 02:10:05;;;;;;;13.35;4.10;;;;;;;;;;5031583;28;20520;-72
2022/06/02 02:12:47;;;;;;;14.90;4.40;;;;;;;;;;5049164;28;20036;-72
2022/06/02 02:15:18;;;;;;;14.68;4.53;;;;;;;;;;5045350;28;20028;-72
2022/06/02 02:18:11;;;;;;;16.88;4.32;;;;;;;;;;5050664;28;20029;-73
2022/06/02 02:20:57;;;;;;;17.33;5.22;;;;;;;;;;5046269;28;20044;-72
2022/06/02 02:23:44;;;;;;;14.88;5.00;;;;;;;;;;5031627;28;20039;-73
2022/06/02 02:26:36;;;;;;;13.15;4.50;;;;;;;;;;5052011;28;20037;-73
2022/06/02 02:29:16;;;;;;;16.63;4.97;;;;;;;;;;5017372;28;20041;-72
2022/06/02 02:31:47;;;;;;;13.85;4.75;;;;;;;;;;5062522;28;20044;-72
2022/06/02 02:34:22;;;;;;;16.85;5.00;;;;;;;;;;5053972;28;20446;-72
2022/06/02 02:37:09;;;;;;;13.88;4.90;;;;;;;;;;5050530;28;20032;-72
2022/06/02 02:39:36;;;;;;;;;;;;;;;;;;5069331;28;20563;-73
2022/06/02 02:42:02;;;;;;;;;;;;;;;;;;5079060;28;20471;-74
2022/06/02 02:44:36;;;;;;;16.70;5.00;;;;;;;;;;5071697;28;19912;-73
2022/06/02 02:47:07;;;;;;;19.38;5.20;;;;;;;;;;5060147;28;20027;-74
2022/06/02 02:49:53;;;;;;;17.00;5.30;;;;;;;;;;5075060;28;20035;-73
2022/06/02 02:52:26;;;;;;;12.68;4.78;;;;;;;;;;5075941;28;20059;-73
2022/06/02 02:55:04;;;;;;;14.52;5.35;;;;;;;;;;5073803;28;20039;-72
2022/06/02 02:57:49;;;;;;;14.20;4.80;;;;;;;;;;5070971;28;20127;-72
2022/06/02 03:00:23;;;;;;;14.45;4.70;;;;;;;;;;5077130;28;20032;-71
2022/06/02 03:03:07;;;;;;;17.90;5.10;;;;;;;;;;5061807;28;20249;-72
2022/06/02 03:05:42;;;;;;;15.80;5.28;;;;;;;;;;5074557;28;20047;-72
2022/06/02 03:08:24;;;;;;;13.52;4.75;;;;;;;;;;5079790;28;20217;-72
2022/06/02 03:11:11;;;;;;;16.65;4.88;;;;;;;;;;5060044;28;20055;-73
2022/06/02 03:13:51;;;;;;;17.90;5.38;;;;;;;;;;5073587;28;20336;-73
2022/06/02 03:16:22;;;;;;;18.67;5.35;;;;;;;;;;5052603;28;20032;-71
2022/06/02 03:19:08;;;;;;;16.00;5.15;;;;;;;;;;5058521;28;20039;-74
2022/06/02 03:21:37;;;;;;;15.15;4.88;;;;;;;;;;5053275;28;20573;-74
2022/06/02 03:24:22;;;;;;;13.30;4.75;;;;;;;;;;5061904;28;20439;-72
2022/06/02 03:26:52;;;;;;;13.15;3.83;;;;;;;;;;5068301;28;20446;-72
2022/06/02 03:29:37;;;;;;;11.13;4.57;;;;;;;;;;5069192;28;20031;-72
2022/06/02 03:32:24;;;;;;;15.55;4.68;;;;;;;;;;5077714;28;20478;-72
2022/06/02 03:35:17;;;;;;;12.82;4.07;;;;;;;;;;5052504;28;20322;-72
2022/06/02 03:38:20;;;;;;;13.23;4.28;;;;;;;;;;5057308;28;20140;-71
2022/06/02 03:41:07;;;;;;;14.07;4.97;;;;;;;;;;4977778;28;20088;-72
2022/06/02 03:43:51;;;;;;;16.15;4.97;;;;;;;;;;4969185;28;20037;-72
2022/06/02 03:46:44;;;;;;;11.05;4.47;;;;;;;;;;4973833;28;20122;-72
2022/06/02 03:49:35;;;;;;;11.38;4.18;;;;;;;;;;4973775;28;20048;-72
2022/06/02 03:52:21;;;;;;;14.32;4.80;;;;;;;;;;4972682;28;20136;-74
2022/06/02 03:55:06;;;;;;;15.73;4.68;;;;;;;;;;4959615;28;20542;-73
2022/06/02 03:57:56;;;;;;;14.20;4.20;;;;;;;;;;4969735;28;20152;-73
2022/06/02 04:00:28;;;;;;;15.10;5.07;;;;;;;;;;4916910;28;20031;-73
2022/06/02 04:02:57;;;;;;;17.95;5.10;;;;;;;;;;4922144;29;20058;-74
2022/06/02 04:05:37;;;;;;;15.95;5.25;;;;;;;;;;4955038;28;20600;-66
2022/06/02 04:08:23;;;;;;;14.80;5.25;;;;;;;;;;4957212;28;20397;-66
2022/06/02 04:11:04;;;;;;;16.70;5.10;;;;;;;;;;4952770;28;20517;-66
2022/06/02 04:13:45;;;;;;;15.50;5.20;;;;;;;;;;4936757;28;20073;-71
2022/06/02 04:16:31;;;;;;;14.68;4.97;;;;;;;;;;5010884;28;20041;-71
2022/06/02 04:22:19;;;;;;;15.35;4.65;;;;;;;;;;5014042;28;20506;-71
2022/06/02 04:25:10;;;;;;;14.63;4.80;;;;;;;;;;5007492;28;20053;-70
2022/06/02 04:27:49;;;;;;;15.40;5.13;;;;;;;;;;4932356;28;20050;-72
2022/06/02 04:30:15;;;;;;;17.08;5.00;;;;;;;;;;4932031;28;20043;-72
2022/06/02 04:33:00;;;;;;;18.02;5.30;;;;;;;;;;4933326;28;20482;-72
2022/06/02 04:35:48;;;;;;;16.77;5.38;;;;;;;;;;4928021;28;20146;-72
2022/06/02 04:38:22;;;;;;;11.90;4.57;;;;;;;;;;4946022;28;20162;-72
2022/06/02 04:41:07;;;;;;;18.30;5.53;;;;;;;;;;4953423;28;20030;-72
2022/06/02 04:43:53;;;;;;;15.00;4.55;;;;;;;;;;4947841;28;20027;-71
2022/06/02 04:46:39;;;;;;;19.30;5.00;;;;;;;;;;4954548;28;20571;-72
2022/06/02 04:49:09;;;;;;;14.98;4.47;;;;;;;;;;4954427;28;20113;-72
2022/06/02 04:51:56;;;;;;;14.68;5.03;;;;;;;;;;4952846;28;20216;-72
2022/06/02 04:54:39;;;;;;;15.45;5.22;;;;;;;;;;4948218;28;20060;-72
2022/06/02 04:57:14;;;;;;;19.35;5.78;;;;;;;;;;4968628;28;20560;-72
2022/06/02 04:59:55;;;;;;;19.50;5.60;;;;;;;;;;4958761;28;20034;-71
2022/06/02 05:02:33;;;;;;;15.48;5.22;;;;;;;;;;4957947;28;20050;-71
2022/06/02 05:05:18;;;;;;;16.13;6.00;;;;;;;;;;5021927;28;20135;-71
2022/06/02 05:08:13;;;;;;;18.15;5.95;;;;;;;;;;5050972;28;20044;-71
2022/06/02 05:10:47;;;;;;;17.42;6.25;;;;;;;;;;4964511;28;20208;-73
2022/06/02 05:13:23;;;;;;;18.40;6.50;;;;;;;;;;4987279;28;20156;-71
2022/06/02 05:16:08;;;;;;;19.05;6.65;;;;;;;;;;4987384;28;20052;-73
2022/06/02 05:18:41;;;;;;;16.50;5.70;;;;;;;;;;5026149;28;20498;-72
2022/06/02 05:21:23;;;;;;;15.32;5.38;;;;;;;;;;5072769;28;20158;-72
2022/06/02 05:24:10;;;;;;;14.82;4.78;;;;;;;;;;5054609;28;20035;-71
2022/06/02 05:26:48;;;;;;;14.27;5.10;;;;;;;;;;5067271;28;20038;-71
2022/06/02 05:29:48;;;;;;;13.57;4.88;;;;;;;;;;5053733;28;20040;-71
2022/06/02 05:32:38;;;;;;;15.75;5.00;;;;;;;;;;5064510;28;20398;-71
2022/06/02 05:35:23;;;;;;;15.60;4.75;;;;;;;;;;5027609;28;20045;-71
2022/06/02 05:38:00;;;;;;;13.65;4.85;;;;;;;;;;5027144;28;20032;-71
2022/06/02 05:40:47;;;;;;;14.35;4.78;;;;;;;;;;5010214;28;20140;-72
2022/06/02 05:43:25;;;;;;;14.05;5.07;;;;;;;;;;5038552;28;20086;-73
2022/06/02 05:46:12;;;;;;;16.58;4.75;;;;;;;;;;5032666;28;20029;-73
2022/06/02 05:48:58;;;;;;;18.63;5.43;;;;;;;;;;5029229;28;20052;-72
2022/06/02 05:51:38;;;;;;;15.85;5.40;;;;;;;;;;5007816;28;20032;-73
2022/06/02 05:54:25;;;;;;;17.55;4.82;;;;;;;;;;5023551;28;20045;-73
2022/06/02 05:57:28;;;;;;;13.55;4.55;;;;;;;;;;5030105;28;20036;-72
2022/06/02 06:00:14;;;;;;;14.77;4.57;;;;;;;;;;4998278;28;20421;-73
2022/06/02 06:03:04;;;;;;;13.05;4.45;;;;;;;;;;5032172;28;20057;-73
2022/06/02 06:05:40;;;;;;;13.57;4.32;;;;;;;;;;5043345;28;20718;-72
2022/06/02 06:08:26;;;;;;;13.32;4.20;;;;;;;;;;5080310;28;20020;-74
2022/06/02 06:11:11;;;;;;;14.18;4.63;;;;;;;;;;5079412;28;20035;-72
2022/06/02 06:13:57;;;;;;;16.80;4.90;;;;;;;;;;5071317;28;20119;-71
2022/06/02 06:16:44;;;;;;;14.05;4.00;;;;;;;;;;5073402;28;20094;-72
2022/06/02 06:19:24;;;;;;;12.95;3.95;;;;;;;;;;5066216;28;20051;-74
2022/06/02 06:21:57;;;;;;;14.98;4.10;;;;;;;;;;5059527;28;20032;-74
2022/06/02 06:24:41;;;;;;;15.88;4.57;;;;;;;;;;5071916;28;20750;-74
2022/06/02 06:27:26;;;;;;;13.68;4.07;;;;;;;;;;5060489;28;20036;-72
2022/06/02 06:30:21;;;;;;;14.60;3.92;;;;;;;;;;5076399;28;20063;-73
2022/06/02 06:33:07;;;;;;;11.10;3.50;;;;;;;;;;5058150;28;20047;-72
2022/06/02 06:35:53;;;;;;;12.90;3.50;;;;;;;;;;5075410;28;20162;-73
2022/06/02 06:38:38;;;;;;;14.38;3.60;;;;;;;;;;5075041;28;20279;-72
2022/06/02 06:41:13;;;;;;;15.05;3.92;;;;;;;;;;5071538;28;20115;-72
2022/06/02 06:43:59;;;;;;;11.55;3.30;;;;;;;;;;5076091;28;20468;-73
2022/06/02 06:46:45;;;;;;;17.58;4.40;;;;;;;;;;5070769;28;20522;-73
2022/06/02 06:49:17;;;;;;;12.02;4.00;;;;;;;;;;5078072;28;20028;-72
2022/06/02 06:52:03;;;;;;;14.95;4.25;;;;;;;;;;5063778;28;20462;-72
2022/06/02 06:55:08;;;;;;;13.02;4.20;;;;;;;;;;5076178;28;20368;-72
2022/06/02 06:57:52;;;;;;;14.23;4.68;;;;;;;;;;5073311;28;20657;-74
2022/06/02 07:00:24;;;;;;;13.48;5.18;;;;;;;;;;5040859;28;20450;-74
2022/06/02 07:03:09;;;;;;;15.50;4.47;;;;;;;;;;5039081;28;20450;-74
2022/06/02 07:05:45;;;;;;;12.90;4.60;;;;;;;;;;5045796;28;20765;-72
2022/06/02 07:08:39;;;;;;;16.17;4.53;;;;;;;;;;5033728;28;20617;-73
2022/06/02 07:14:22;;;;;;;14.43;4.30;;;;;;;;;;5047425;28;20071;-72
2022/06/02 07:17:03;;;;;;;14.52;4.50;;;;;;;;;;5040397;28;20604;-72
2022/06/02 07:19:51;;;;;;;13.40;4.07;;;;;;;;;;4997496;28;20044;-72
2022/06/02 07:22:36;;;;;;;12.73;3.95;;;;;;;;;;5035622;28;20103;-72
2022/06/02 07:25:30;;;;;;;15.63;4.43;;;;;;;;;;5051224;28;20090;-72
2022/06/02 07:27:57;;;;;;;11.05;3.95;;;;;;;;;;5049823;28;20025;-74
2022/06/02 07:30:33;;;;;;;13.32;3.75;;;;;;;;;;5047402;28;20557;-72
2022/06/02 07:33:18;;;;;;;10.88;3.88;;;;;;;;;;5039118;28;20562;-73
2022/06/02 07:36:20;;;;;;;13.48;4.03;;;;;;;;;;5050385;28;20160;-73
2022/06/02 07:39:06;;;;;;;11.43;3.53;;;;;;;;;;4997270;28;20069;-73
2022/06/02 07:41:58;;;;;;;13.90;3.97;;;;;;;;;;4958999;28;20493;-73
2022/06/02 07:44:43;;;;;;;11.23;3.38;;;;;;;;;;4944300;28;20039;-74
2022/06/02 07:47:37;;;;;;;11.27;3.30;;;;;;;;;;4943070;28;20039;-73
2022/06/02 07:50:23;;;;;;;10.55;3.35;;;;;;;;;;4942826;28;20611;-73
2022/06/02 07:52:52;;;;;;;10.73;3.45;;;;;;;;;;4922888;28;20047;-73
2022/06/02 07:55:26;;;;;;;11.93;3.08;;;;;;;;;;4925118;28;20494;-73
2022/06/02 07:58:02;;;;;;;11.98;3.25;;;;;;;;;;4942234;28;20395;-73
2022/06/02 08:00:33;;;;;;;11.18;2.80;;;;;;;;;;4964328;28;20499;-73
2022/06/02 08:03:17;;;;;;;11.50;2.58;;;;;;;;;;4951126;28;20038;-73
2022/06/02 08:06:11;;;;;;;10.68;2.88;;;;;;;;;;4966057;28;20025;-73
2022/06/02 08:08:55;;;;;;;12.88;2.42;;;;;;;;;;4951152;28;20122;-72
2022/06/02 08:11:26;;;;;;;10.10;2.72;;;;;;;;;;5020774;28;20109;-73
2022/06/02 08:14:10;;;;;;;10.98;2.47;;;;;;;;;;5026646;28;20142;-73
2022/06/02 08:16:57;;;;;;;11.07;2.45;;;;;;;;;;5027392;28;20082;-73
2022/06/02 08:19:37;;;;;;;11.82;2.60;;;;;;;;;;4992208;28;20222;-73
2022/06/02 08:22:07;;;;;;;9.73;2.50;;;;;;;;;;5057252;28;20036;-73
2022/06/02 08:24:52;;;;;;;12.93;2.97;;;;;;;;;;5031930;28;20398;-73
2022/06/02 08:27:38;;;;;;;9.15;2.85;;;;;;;;;;5060462;28;20035;-73
2022/06/02 08:30:18;;;;;;;10.40;2.30;;;;;;;;;;5049936;28;20032;-74
2022/06/02 08:32:52;;;;;;;10.60;2.40;;;;;;;;;;5065650;28;20028;-73
2022/06/02 08:35:25;;;;;;;9.10;2.22;;;;;;;;;;5060121;28;20036;-73
2022/06/02 08:37:54;;;;;;;10.65;2.15;;;;;;;;;;5061079;28;20044;-72
2022/06/02 08:40:50;;;;;;;7.65;1.83;;;;;;;;;;5048052;28;20033;-74
2022/06/02 08:43:35;;;;;;;9.85;2.20;;;;;;;;;;5046460;28;20047;-74
2022/06/02 08:46:10;;;;;;;13.50;3.08;;;;;;;;;;5049430;28;20032;-73
2022/06/02 08:48:55;;;;;;;10.10;2.97;;;;;;;;;;5060931;28;20475;-74
2022/06/02 08:51:40;;;;;;;9.80;2.53;;;;;;;;;;5061580;28;20063;-73
2022/06/02 08:54:38;;;;;;;8.18;2.50;;;;;;;;;;5061916;28;20269;-73
2022/06/02 08:57:18;;;;;;;9.15;2.25;;;;;;;;;;5024139;28;20079;-73
2022/06/02 09:00:06;;;;;;;8.70;2.08;;;;;;;;;;5029904;28;20425;-73
2022/06/02 09:02:51;;;;;;;7.45;2.13;;;;;;;;;;5021435;28;20037;-73
2022/06/02 09:05:35;;;;;;;10.40;2.38;;;;;;;;;;5028846;28;20424;-73
2022/06/02 09:08:10;;;;;;;9.85;2.30;;;;;;;;;;5025034;28;20033;-75
2022/06/02 09:11:03;;;;;;;9.23;2.50;;;;;;;;;;4990567;28;20051;-74
2022/06/02 09:13:49;;;;;;;11.38;2.10;;;;;;;;;;4931128;28;20047;-75
2022/06/02 09:16:35;;;;;;;8.35;2.00;;;;;;;;;;4930841;28;20596;-74
2022/06/02 09:19:03;;;;;;;10.25;1.83;;;;;;;;;;4925809;28;20036;-75
2022/06/02 09:21:58;;;;;;;8.13;1.77;;;;;;;;;;4915585;28;20075;-75
2022/06/02 09:24:48;;;;;;;7.32;2.28;;;;;;;;;;4925775;28;20309;-74
2022/06/02 09:27:34;;;;;;;8.98;1.90;;;;;;;;;;4933368;28;20484;-75
2022/06/02 09:30:02;;;;;;;10.27;2.05;;;;;;;;;;4972969;28;20034;-74
2022/06/02 09:32:48;;;;;;;9.68;2.10;;;;;;;;;;4954030;28;20133;-74
2022/06/02 09:35:51;;;;;;;9.55;1.88;;;;;;;;;;4964622;28;20095;-74
2022/06/02 09:38:43;;;;;;;10.30;1.88;;;;;;;;;;4917706;28;20043;-74
2022/06/02 09:41:19;;;;;;;7.18;1.83;;;;;;;;;;4929438;28;20465;-74
2022/06/02 09:44:11;;;;;;;7.75;1.90;;;;;;;;;;4931508;28;20043;-73
2022/06/02 09:46:54;;;;;;;7.45;1.90;;;;;;;;;;4932655;28;20105;-74
2022/06/02 09:49:39;;;;;;;7.45;1.70;;;;;;;;;;4924489;28;20040;-73
2022/06/02 09:52:44;;;;;;;9.95;1.95;;;;;;;;;;4998662;28;20392;-74
2022/06/02 09:55:28;;;;;;;8.68;2.75;;;;;;;;;;4916880;28;20391;-74
2022/06/02 09:58:12;;;;;;;10.57;2.63;;;;;;;;;;4949382;28;20039;-74
2022/06/02 10:00:41;;;;;;;10.75;2.25;;;;;;;;;;4930639;28;20432;-74
2022/06/02 10:03:35;;;;;;;10.70;3.20;;;;;;;;;;4934802;28;20038;-74
2022/06/02 10:06:17;;;;;;;13.32;2.65;;;;;;;;;;4886187;29;20053;-74
2022/06/02 10:08:53;;;;;;;9.43;2.72;;;;;;;;;;4886737;29;20044;-74
2022/06/02 10:11:55;;;;;;;10.65;2.70;;;;;;;;;;4866296;28;20032;-74
2022/06/02 10:14:52;;;;;;;11.93;3.50;;;;;;;;;;4864444;29;20050;-74
2022/06/02 10:17:34;;;;;;;13.05;3.88;;;;;;;;;;4830251;29;20128;-74
2022/06/02 10:20:24;;;;;;;13.35;3.40;;;;;;;;;;4832603;29;20080;-74
2022/06/02 10:23:12;;;;;;;13.48;3.15;;;;;;;;;;4834945;29;20599;-74
2022/06/02 10:26:08;;;;;;;12.57;2.90;;;;;;;;;;4845380;29;20139;-74
2022/06/02 10:28:36;;;;;;;;;;;;;;;;;;4860418;29;20115;-74
2022/06/02 10:31:16;;;;;;;12.20;3.38;;;;;;;;;;4876872;29;19983;-74
2022/06/02 10:33:55;;;;;;;13.20;3.28;;;;;;;;;;4877435;29;20075;-75
2022/06/02 10:36:40;;;;;;;12.65;2.67;;;;;;;;;;4882535;28;20067;-74
2022/06/02 10:39:20;;;;;;;14.25;2.88;;;;;;;;;;4933595;28;20621;-74
2022/06/02 10:42:04;;;;;;;11.65;2.92;;;;;;;;;;4931622;28;20130;-74
2022/06/02 10:44:49;;;;;;;11.63;2.45;;;;;;;;;;4920256;28;20498;-74
2022/06/02 10:47:36;;;;;;;15.73;3.88;;;;;;;;;;4933362;28;20039;-74
2022/06/02 10:50:41;;;;;;;25.35;11.65;;;;;;;;;;5001965;28;20503;-74
2022/06/02 10:53:15;;;;;;;13.07;4.28;;;;;;;;;;5000481;28;20272;-74
2022/06/02 10:56:01;;;;;;;14.57;3.17;;;;;;;;;;5064693;28;20040;-74
2022/06/02 10:58:47;;;;;;;15.02;4.07;;;;;;;;;;5062632;28;20040;-73
2022/06/02 11:01:34;;;;;;;12.45;2.70;;;;;;;;;;5058798;28;20056;-73
2022/06/02 11:04:19;;;;;;;14.85;2.53;;;;;;;;;;5023669;28;20505;-73
2022/06/02 11:07:12;;;;;;;17.83;3.67;;;;;;;;;;5021832;28;20051;-73
2022/06/02 11:09:52;;;;;;;13.60;2.58;;;;;;;;;;4941910;28;20042;-72
2022/06/02 11:12:26;;;;;;;11.75;3.17;;;;;;;;;;4937661;28;20113;-73
2022/06/02 11:15:11;;;;;;;10.38;2.90;;;;;;;;;;4942581;28;20105;-73
2022/06/02 11:17:41;;;;;;;14.65;3.08;;;;;;;;;;4942205;28;20047;-73
2022/06/02 11:20:21;;;;;;;10.95;2.67;;;;;;;;;;4928267;28;20038;-73
2022/06/02 11:23:08;;;;;;;14.88;2.97;;;;;;;;;;4943180;28;20031;-73
2022/06/02 11:25:55;;;;;;;12.55;3.00;;;;;;;;;;4942110;28;20612;-73
2022/06/02 11:28:42;;;;;;;16.00;3.10;;;;;;;;;;4941915;28;20065;-73
2022/06/02 11:31:37;;;;;;;13.85;2.63;;;;;;;;;;4943514;28;20156;-73
2022/06/02 11:34:38;;;;;;;12.80;2.80;;;;;;;;;;4926228;28;20548;-73
2022/06/02 11:37:23;;;;;;;12.70;2.47;;;;;;;;;;4925350;28;20055;-73
2022/06/02 11:40:15;;;;;;;13.73;2.85;;;;;;;;;;4924473;28;20141;-73
2022/06/02 11:43:00;;;;;;;13.23;2.80;;;;;;;;;;4907519;29;20079;-72
2022/06/02 11:45:46;;;;;;;13.55;2.65;;;;;;;;;;4919352;28;20529;-75
2022/06/02 11:48:31;;;;;;;10.77;2.30;;;;;;;;;;5007355;28;20490;-73
2022/06/02 11:51:02;;;;;;;14.75;2.70;;;;;;;;;;5033535;28;20033;-74
2022/06/02 11:53:46;;;;;;;11.45;2.80;;;;;;;;;;5007807;28;20115;-74
2022/06/02 11:56:21;;;;;;;11.45;2.50;;;;;;;;;;5000590;28;20388;-74
2022/06/02 11:59:09;;;;;;;11.38;2.65;;;;;;;;;;5014687;28;20164;-74
2022/06/02 12:01:53;;;;;;;11.38;2.70;;;;;;;;;;4995552;28;20505;-74
2022/06/02 12:04:39;;;;;;;10.90;2.63;;;;;;;;;;5010386;28;20265;-74
2022/06/02 12:07:41;;;;;;;10.73;2.83;;;;;;;;;;5016879;28;21007;-75
2022/06/02 12:10:27;;;;;;;13.93;2.92;;;;;;;;;;4976642;28;20045;-73
2022/06/02 12:13:18;;;;;;;11.10;2.88;;;;;;;;;;4973622;28;20392;-75
2022/06/02 12:16:06;;;;;;;13.43;2.85;;;;;;;;;;4950635;28;20868;-74
2022/06/02 12:18:57;;;;;;;15.00;3.10;;;;;;;;;;4954004;28;20045;-74
2022/06/02 12:21:48;;;;;;;11.60;2.40;;;;;;;;;;4956136;28;20042;-73
2022/06/02 12:24:14;;;;;;;10.82;2.60;;;;;;;;;;4962498;28;20546;-73
2022/06/02 12:26:52;;;;;;;12.65;2.90;;;;;;;;;;4964903;28;20129;-74
2022/06/02 12:29:37;;;;;;;12.18;2.88;;;;;;;;;;4958545;28;20088;-74
2022/06/02 12:32:13;;;;;;;14.90;2.63;;;;;;;;;;4962638;28;20700;-74
2022/06/02 12:34:59;;;;;;;13.00;2.35;;;;;;;;;;4982205;28;20113;-73
2022/06/02 12:37:46;;;;;;;10.45;2.45;;;;;;;;;;4962399;28;20061;-73
2022/06/02 12:40:30;;;;;;;14.27;2.63;;;;;;;;;;4976642;28;20038;-73
2022/06/02 12:43:18;;;;;;;13.48;2.58;;;;;;;;;;4968162;28;20076;-69
2022/06/02 12:46:08;;;;;;;11.93;2.33;;;;;;;;;;5006892;28;20451;-69
2022/06/02 12:48:56;;;;;;;10.07;2.70;;;;;;;;;;4954359;28;20034;-69
2022/06/02 12:51:28;;;;;;;15.75;2.47;;;;;;;;;;4955876;28;20109;-70
2022/06/02 12:54:11;;;;;;;11.23;2.40;;;;;;;;;;4960355;28;20143;-69
2022/06/02 12:56:56;;;;;;;13.65;2.35;;;;;;;;;;4959274;28;20724;-70
2022/06/02 12:59:44;;;;;;;11.52;2.30;;;;;;;;;;4953073;28;21461;-70
2022/06/02 13:02:29;;;;;;;11.63;2.63;;;;;;;;;;4970691;28;20058;-70
2022/06/02 13:05:17;;;;;;;15.63;2.60;;;;;;;;;;4973072;28;20535;-70
2022/06/02 13:07:46;;;;;;;14.20;2.67;;;;;;;;;;4976802;28;20068;-70
2022/06/02 13:10:31;;;;;;;15.27;2.50;;;;;;;;;;4977198;28;20034;-71
2022/06/02 13:13:02;;;;;;;11.88;2.53;;;;;;;;;;4974895;28;20046;-70
2022/06/02 13:15:47;;;;;;;12.95;2.67;;;;;;;;;;4960943;28;20029;-70
2022/06/02 13:18:38;;;;;;;15.10;3.00;;;;;;;;;;4956594;28;20061;-70
2022/06/02 13:21:23;;;;;;;15.32;2.85;;;;;;;;;;4917621;28;20496;-70
2022/06/02 13:24:08;;;;;;;11.38;2.70;;;;;;;;;;4919662;28;20043;-70
2022/06/02 13:26:56;;;;;;;11.90;2.78;;;;;;;;;;4968796;28;20553;-69
2022/06/02 13:29:38;;;;;;;9.25;2.40;;;;;;;;;;4974503;28;20030;-70
2022/06/02 13:32:18;;;;;;;11.93;2.78;;;;;;;;;;4979039;28;20077;-70
2022/06/02 13:35:05;;;;;;;14.23;3.08;;;;;;;;;;4979191;28;20287;-69
2022/06/02 13:37:48;;;;;;;12.25;2.25;;;;;;;;;;4967661;28;20700;-69
2022/06/02 13:40:26;;;;;;;13.20;2.70;;;;;;;;;;4959517;28;20366;-70
2022/06/02 13:43:23;;;;;;;13.48;2.40;;;;;;;;;;4981249;28;20438;-68
2022/06/02 13:45:55;;;;;;;14.25;2.80;;;;;;;;;;4936346;28;20043;-73
2022/06/02 13:48:41;;;;;;;12.90;2.97;;;;;;;;;;4931319;28;20689;-73
2022/06/02 13:51:26;;;;;;;15.07;3.15;;;;;;;;;;4936885;28;20035;-75
2022/06/02 13:57:32;;;;;;;16.27;3.25;;;;;;;;;;4880639;29;20454;-73
2022/06/02 14:00:24;;;;;;;12.85;2.80;;;;;;;;;;4901194;29;20047;-73
2022/06/02 14:03:15;;;;;;;14.32;2.88;;;;;;;;;;4884458;28;20078;-73
2022/06/02 14:06:06;;;;;;;14.75;2.75;;;;;;;;;;4920005;28;20497;-73
2022/06/02 14:08:45;;;;;;;12.60;2.90;;;;;;;;;;4918414;28;20038;-73
2022/06/02 14:11:32;;;;;;;14.18;2.97;;;;;;;;;;4902132;28;20041;-72
2022/06/02 14:14:24;;;;;;;13.85;3.08;;;;;;;;;;4923483;28;20808;-71
2022/06/02 14:17:08;;;;;;;15.40;3.03;;;;;;;;;;4884898;29;20592;-71
2022/06/02 14:19:44;;;;;;;14.27;3.30;;;;;;;;;;4877077;29;20209;-74
2022/06/02 14:22:30;;;;;;;12.35;2.90;;;;;;;;;;4898610;29;20066;-73
2022/06/02 14:24:59;;;;;;;11.50;2.80;;;;;;;;;;4905961;29;20036;-71
2022/06/02 14:27:37;;;;;;;13.55;2.90;;;;;;;;;;4914306;29;20063;-69
2022/06/02 14:30:43;;;;;;;18.17;3.42;;;;;;;;;;4919727;29;20681;-71
2022/06/02 14:33:18;;;;;;;14.05;3.13;;;;;;;;;;4887127;28;20051;-72
2022/06/02 14:36:06;;;;;;;14.10;3.30;;;;;;;;;;4904512;28;20047;-71
2022/06/02 14:38:52;;;;;;;9.38;2.63;;;;;;;;;;4920935;28;21395;-71
2022/06/02 14:41:37;;;;;;;13.68;3.00;;;;;;;;;;4918167;28;20046;-71
2022/06/02 14:44:18;;;;;;;10.18;3.08;;;;;;;;;;4920426;28;20214;-71
2022/06/02 14:47:03;;;;;;;14.68;2.65;;;;;;;;;;4909230;28;20039;-73
2022/06/02 14:49:48;;;;;;;12.95;3.35;;;;;;;;;;4950848;28;20041;-73
2022/06/02 14:52:35;;;;;;;14.95;2.88;;;;;;;;;;4964017;28;20168;-73
2022/06/02 14:55:14;;;;;;;10.77;2.88;;;;;;;;;;4963004;28;20597;-74
2022/06/02 14:58:00;;;;;;;16.52;3.45;;;;;;;;;;4960708;28;20161;-74
2022/06/02 15:00:33;;;;;;;14.25;2.65;;;;;;;;;;4962708;28;20038;-74
2022/06/02 15:03:07;;;;;;;15.73;3.17;;;;;;;;;;4983305;28;20299;-69
2022/06/02 15:05:35;;;;;;;;;;;;;;;;;;4984991;28;20037;-70
2022/06/02 15:08:21;;;;;;;16.42;4.00;;;;;;;;;;5046178;28;20627;-70
2022/06/02 15:11:06;;;;;;;16.20;3.42;;;;;;;;;;5050752;28;20048;-69
2022/06/02 15:13:45;;;;;;;14.68;3.55;;;;;;;;;;5027408;28;20039;-71
2022/06/02 15:16:42;;;;;;;17.70;3.30;;;;;;;;;;5052898;28;20044;-69
2022/06/02 15:19:29;;;;;;;14.95;3.13;;;;;;;;;;5019869;28;20071;-69
2022/06/02 15:21:58;;;;;;;13.80;3.35;;;;;;;;;;5017264;28;20063;-70
2022/06/02 15:24:30;;;;;;;17.40;3.55;;;;;;;;;;5014528;28;20277;-73
2022/06/02 15:27:15;;;;;;;14.40;2.72;;;;;;;;;;5016238;28;20040;-74
2022/06/02 15:29:41;;;;;;;;;;;;;;;;;;5037351;28;20448;-73
2022/06/02 15:32:22;;;;;;;10.98;2.97;;;;;;;;;;5025494;28;19920;-73
2022/06/02 15:35:00;;;;;;;14.20;3.22;;;;;;;;;;5032044;28;20578;-73
2022/06/02 15:37:57;;;;;;;14.85;3.22;;;;;;;;;;5025104;28;20043;-73
2022/06/02 15:40:51;;;;;;;12.88;2.92;;;;;;;;;;5022493;28;20067;-74
2022/06/02 15:43:23;;;;;;;13.85;3.42;;;;;;;;;;5009612;28;20128;-75
2022/06/02 15:45:54;;;;;;;15.23;3.45;;;;;;;;;;5016455;28;20397;-75
2022/06/02 15:49:05;;;;;;;18.38;3.45;;;;;;;;;;5018614;28;20100;-72
2022/06/02 15:51:50;;;;;;;16.27;3.42;;;;;;;;;;4998243;28;20034;-74
2022/06/02 15:54:37;;;;;;;11.82;3.03;;;;;;;;;;5012836;28;20040;-73
2022/06/02 15:57:23;;;;;;;18.50;3.97;;;;;;;;;;4999263;28;20576;-73
2022/06/02 16:00:10;;;;;;;15.38;3.25;;;;;;;;;;5016640;28;20154;-72
2022/06/02 16:02:56;;;;;;;15.00;3.28;;;;;;;;;;5011915;28;20068;-74
2022/06/02 16:05:43;;;;;;;12.68;2.53;;;;;;;;;;5002291;28;20043;-73
2022/06/02 16:08:28;;;;;;;15.30;3.58;;;;;;;;;;5009036;28;20024;-73
2022/06/02 16:11:17;;;;;;;11.55;2.83;;;;;;;;;;4998683;28;20041;-72
2022/06/02 16:14:00;;;;;;;12.60;2.90;;;;;;;;;;4964691;28;20164;-73
2022/06/02 16:16:45;;;;;;;15.90;3.55;;;;;;;;;;5003758;28;20159;-73
2022/06/02 16:19:32;;;;;;;13.47;3.07;;;;;;;;;;5010713;28;20194;-73
2022/06/02 16:22:34;;;;;;;16.58;3.47;;;;;;;;;;5029461;28;20036;-73